Time;durP1;ratioP1;P1;durP2;ratioP2;P2;SDS_P1;SDS_P2;PMS_P1;PMS_P2;Temp;Humidity;BMP_temperature;BMP_pressure;BME280_temperature;BME280_humidity;BME280_pressure;Samples;Min_cycle;Max_cycle;Signal;HPM_P1;HPM_P2
2023/05/24 00:01:24;;;;;;;8.50;6.30;;;;;;;14.50;56.93;94786.31;5087211;28;20399;-77
2023/05/24 00:03:51;;;;;;;10.20;6.38;;;;;;;14.45;57.16;94787.72;5088311;28;20520;-78
2023/05/24 00:06:16;;;;;;;8.95;6.50;;;;;;;14.44;57.27;94786.16;5087892;28;20034;-78
2023/05/24 00:08:41;;;;;;;8.77;6.15;;;;;;;14.41;57.56;94792.63;5070377;28;20414;-77
2023/05/24 00:11:07;;;;;;;8.82;5.88;;;;;;;14.40;57.54;94790.34;5085740;28;20080;-77
2023/05/24 00:13:32;;;;;;;11.38;6.03;;;;;;;14.35;57.61;94784.19;5087660;28;20474;-78
2023/05/24 00:15:58;;;;;;;9.00;6.07;;;;;;;14.35;57.48;94791.72;5087258;28;20031;-77
2023/05/24 00:18:23;;;;;;;12.65;6.78;;;;;;;14.30;57.41;94784.06;5088847;28;20493;-78
2023/05/24 00:20:50;;;;;;;13.23;6.22;;;;;;;14.28;57.60;94786.53;5087726;28;20036;-77
2023/05/24 00:23:15;;;;;;;10.25;7.10;;;;;;;14.27;57.96;94790.50;5069740;28;20393;-77
2023/05/24 00:25:41;;;;;;;9.93;6.80;;;;;;;14.25;57.91;94781.91;5088297;28;20032;-77
2023/05/24 00:28:06;;;;;;;12.93;6.25;;;;;;;14.23;57.93;94774.09;5068753;28;20112;-77
2023/05/24 00:30:32;;;;;;;8.65;5.72;;;;;;;14.22;57.79;94778.09;5088523;28;20073;-77
2023/05/24 00:32:57;;;;;;;10.82;6.50;;;;;;;14.21;57.87;94764.72;5086838;28;20099;-76
2023/05/24 00:35:22;;;;;;;11.45;6.35;;;;;;;14.17;57.92;94775.94;5088129;28;20494;-76
2023/05/24 00:37:48;;;;;;;8.45;6.38;;;;;;;14.16;57.98;94777.16;5087122;28;20063;-77
2023/05/24 00:40:13;;;;;;;12.60;6.07;;;;;;;14.13;57.76;94764.28;5087661;28;20031;-77
2023/05/24 00:42:38;;;;;;;7.70;6.22;;;;;;;14.13;58.09;94769.81;5090476;28;20024;-78
2023/05/24 00:45:05;;;;;;;10.35;6.70;;;;;;;14.08;58.06;94768.44;5091150;28;20032;-77
2023/05/24 00:47:30;;;;;;;9.63;5.88;;;;;;;14.07;57.93;94774.44;5085941;28;20490;-77
2023/05/24 00:49:56;;;;;;;10.75;6.00;;;;;;;14.01;57.91;94774.28;5086881;28;20028;-78
2023/05/24 00:52:21;;;;;;;9.23;5.72;;;;;;;13.99;58.18;94774.00;5086474;28;20020;-78
2023/05/24 00:54:47;;;;;;;8.23;5.90;;;;;;;13.94;58.41;94773.84;5068442;28;20325;-77
2023/05/24 00:57:12;;;;;;;8.27;6.15;;;;;;;13.93;58.47;94773.06;5086516;28;20016;-77
2023/05/24 00:59:39;;;;;;;7.47;5.32;;;;;;;13.89;58.47;94775.22;5085516;28;20039;-77
2023/05/24 01:02:04;;;;;;;8.65;5.85;;;;;;;13.87;58.57;94772.13;5085806;28;20032;-77
2023/05/24 01:04:31;;;;;;;7.88;5.72;;;;;;;13.84;58.57;94783.38;5086966;28;20100;-77
2023/05/24 01:06:59;;;;;;;10.35;5.88;;;;;;;13.82;58.61;94784.59;5085262;28;20035;-78
2023/05/24 01:09:49;;;;;;;10.25;5.82;;;;;;;13.80;58.31;94789.81;5087286;28;20111;-77
2023/05/24 01:12:41;;;;;;;7.18;5.28;;;;;;;13.75;58.33;94790.41;5085465;28;20032;-77
2023/05/24 01:15:11;;;;;;;7.82;5.15;;;;;;;13.73;58.58;94783.81;5072287;28;20063;-77
2023/05/24 01:17:47;;;;;;;8.07;5.97;;;;;;;13.72;58.85;94794.13;5087062;28;20064;-77
2023/05/24 01:20:14;;;;;;;7.32;5.55;;;;;;;13.65;58.95;94786.13;5086567;28;20030;-77
2023/05/24 01:23:12;;;;;;;8.57;6.35;;;;;;;13.65;59.27;94796.41;5086298;28;20032;-77
2023/05/24 01:26:04;;;;;;;11.02;7.15;;;;;;;13.61;59.33;94784.75;5068162;28;20040;-77
2023/05/24 01:28:32;;;;;;;10.23;5.45;;;;;;;13.57;59.71;94787.66;5084701;28;20071;-78
2023/05/24 01:30:58;;;;;;;8.73;6.20;;;;;;;13.56;59.71;94797.16;5085996;28;20553;-79
2023/05/24 01:33:24;;;;;;;10.55;6.43;;;;;;;13.52;59.95;94793.78;5084220;28;20104;-77
2023/05/24 01:35:50;;;;;;;7.90;5.55;;;;;;;13.47;59.85;94797.16;5068448;28;20060;-77
2023/05/24 01:38:15;;;;;;;10.68;5.93;;;;;;;13.44;59.92;94800.84;5084630;28;20024;-76
2023/05/24 01:40:41;;;;;;;9.63;5.80;;;;;;;13.43;59.80;94791.03;5089663;28;20387;-77
2023/05/24 01:43:32;;;;;;;8.68;5.97;;;;;;;13.39;59.57;94793.94;5085440;28;20055;-77
2023/05/24 01:46:19;;;;;;;12.35;6.43;;;;;;;13.35;59.31;94781.50;5084759;28;20047;-77
2023/05/24 01:48:50;;;;;;;11.35;6.13;;;;;;;13.31;59.33;94787.19;5087131;28;20038;-77
2023/05/24 01:51:18;;;;;;;11.98;6.15;;;;;;;13.30;59.34;94785.63;5084394;28;20020;-77
2023/05/24 01:53:46;;;;;;;8.63;5.20;;;;;;;13.27;59.32;94781.81;5085207;28;20031;-79
2023/05/24 01:56:12;;;;;;;8.93;5.90;;;;;;;13.23;59.29;94780.41;5086794;28;20020;-77
2023/05/24 01:58:40;;;;;;;10.60;5.78;;;;;;;13.19;59.47;94780.53;5067831;28;20106;-77
2023/05/24 02:01:05;;;;;;;8.82;6.20;;;;;;;13.17;59.49;94779.44;5085387;28;20032;-77
2023/05/24 02:03:32;;;;;;;8.30;5.82;;;;;;;13.16;59.56;94783.44;5083690;28;20116;-76
2023/05/24 02:05:57;;;;;;;9.02;6.13;;;;;;;13.16;59.42;94781.44;5085593;28;20040;-77
2023/05/24 02:08:23;;;;;;;13.80;6.40;;;;;;;13.12;59.33;94778.06;5083817;28;20067;-78
2023/05/24 02:10:48;;;;;;;10.63;6.47;;;;;;;13.12;59.37;94777.28;5086530;28;20542;-76
2023/05/24 02:13:16;;;;;;;10.88;5.88;;;;;;;13.09;59.33;94778.22;5084657;28;20103;-79
2023/05/24 02:15:43;;;;;;;9.70;6.22;;;;;;;13.07;59.41;94775.13;5085877;28;20024;-77
2023/05/24 02:18:10;;;;;;;7.85;5.97;;;;;;;13.04;59.39;94779.59;5085078;28;20071;-77
2023/05/24 02:20:35;;;;;;;9.88;6.35;;;;;;;13.03;59.78;94773.31;5084772;28;20020;-77
2023/05/24 02:23:03;;;;;;;12.48;7.25;;;;;;;13.04;59.95;94768.53;5085290;28;20119;-78
2023/05/24 02:25:28;;;;;;;11.00;7.70;;;;;;;12.99;60.05;94767.16;5083696;28;20034;-76
2023/05/24 02:27:54;;;;;;;9.95;6.53;;;;;;;12.98;60.50;94767.63;5085387;28;20099;-78
2023/05/24 02:30:19;;;;;;;8.48;6.07;;;;;;;12.97;60.26;94775.13;5067157;28;20406;-77
2023/05/24 02:32:45;;;;;;;8.80;5.78;;;;;;;12.96;60.13;94767.28;5085778;28;20077;-77
2023/05/24 02:35:11;;;;;;;12.55;7.28;;;;;;;12.95;60.10;94774.81;5086067;28;20077;-78
2023/05/24 02:37:36;;;;;;;11.10;6.18;;;;;;;12.89;60.33;94767.59;5075570;28;20070;-77
2023/05/24 02:40:03;;;;;;;7.03;5.80;;;;;;;12.93;60.35;94771.75;5085040;28;20521;-77
2023/05/24 02:42:28;;;;;;;7.82;5.60;;;;;;;12.92;60.23;94774.97;5085424;28;20040;-77
2023/05/24 02:44:53;;;;;;;10.80;6.25;;;;;;;12.90;60.49;94780.16;5084849;28;20502;-77
2023/05/24 02:47:19;;;;;;;8.40;5.97;;;;;;;12.87;60.65;94776.31;5085697;28;20028;-79
2023/05/24 02:49:44;;;;;;;8.65;5.90;;;;;;;12.84;60.40;94779.97;5089093;28;20035;-77
2023/05/24 02:52:10;;;;;;;9.52;6.20;;;;;;;12.79;60.95;94775.09;5089623;28;20021;-78
2023/05/24 02:54:38;;;;;;;6.70;6.00;;;;;;;12.80;60.54;94789.63;5088299;28;20028;-77
2023/05/24 02:57:05;;;;;;;6.95;6.13;;;;;;;12.75;60.50;94774.44;5088635;28;20020;-78
2023/05/24 02:59:35;;;;;;;8.95;7.18;;;;;;;12.73;60.63;94783.19;5089146;28;20019;-78
2023/05/24 03:02:00;;;;;;;9.55;6.28;;;;;;;12.71;60.60;94793.13;5088801;28;20490;-77
2023/05/24 03:04:26;;;;;;;8.93;6.50;;;;;;;12.70;60.61;94789.59;5088798;28;20554;-79
2023/05/24 03:06:52;;;;;;;11.65;6.63;;;;;;;12.68;60.71;94788.53;5090198;28;20028;-78
2023/05/24 03:09:17;;;;;;;12.38;7.05;;;;;;;12.68;60.88;94789.28;5089038;28;20564;-79
2023/05/24 03:11:43;;;;;;;12.65;7.32;;;;;;;12.70;61.06;94795.13;5089837;28;20116;-77
2023/05/24 03:14:09;;;;;;;9.25;7.00;;;;;;;12.68;61.12;94792.06;5089984;28;20024;-79
2023/05/24 03:16:35;;;;;;;8.85;6.68;;;;;;;12.70;61.53;94797.09;5087868;28;20028;-79
2023/05/24 03:19:03;;;;;;;9.70;7.28;;;;;;;12.67;61.66;94793.28;5088183;28;20093;-78
2023/05/24 03:21:28;;;;;;;10.93;7.03;;;;;;;12.55;61.67;94777.56;5087824;28;20040;-78
2023/05/24 03:23:54;;;;;;;12.40;7.03;;;;;;;12.75;61.45;94804.78;5071350;28;20028;-78
2023/05/24 03:26:19;;;;;;;15.63;8.50;;;;;;;12.79;60.97;94799.91;5088469;28;20150;-78
2023/05/24 03:28:46;;;;;;;9.75;7.03;;;;;;;12.80;60.87;94801.44;5089524;28;20494;-77
2023/05/24 03:31:12;;;;;;;13.75;6.93;;;;;;;12.79;60.82;94802.66;5088789;28;20023;-78
2023/05/24 03:33:37;;;;;;;10.10;6.97;;;;;;;12.77;60.69;94803.09;5095722;28;20020;-78
2023/05/24 03:36:03;;;;;;;10.68;7.20;;;;;;;12.77;60.29;94808.63;5088293;28;20137;-77
2023/05/24 03:38:30;;;;;;;11.85;8.32;;;;;;;12.79;60.24;94810.94;5087249;28;20415;-77
2023/05/24 03:40:55;;;;;;;16.33;7.50;;;;;;;12.80;60.23;94809.72;5087775;28;20520;-78
2023/05/24 03:43:20;;;;;;;16.27;7.50;;;;;;;12.82;60.10;94810.03;5088560;28;20027;-77
2023/05/24 03:45:46;;;;;;;14.10;7.40;;;;;;;12.84;60.21;94810.31;5089539;28;20103;-77
2023/05/24 03:48:12;;;;;;;8.90;6.28;;;;;;;12.88;60.54;94813.72;5086861;28;20056;-77
2023/05/24 03:50:37;;;;;;;12.88;7.53;;;;;;;12.88;60.54;94808.19;5089224;28;20136;-78
2023/05/24 03:53:03;;;;;;;11.55;7.10;;;;;;;12.89;60.57;94809.72;5088727;28;20027;-78
2023/05/24 03:55:28;;;;;;;12.48;6.80;;;;;;;12.96;60.51;94815.00;5088370;28;20468;-79
2023/05/24 03:57:54;;;;;;;10.95;7.10;;;;;;;12.88;60.56;94797.16;5087630;28;20040;-78
2023/05/24 04:00:20;;;;;;;14.80;8.35;;;;;;;13.01;60.62;94810.84;5085850;28;20527;-77
2023/05/24 04:02:45;;;;;;;14.80;8.20;;;;;;;13.03;60.83;94814.69;5089119;28;20045;-77
2023/05/24 04:05:12;;;;;;;16.08;7.72;;;;;;;13.09;60.91;94814.88;5087523;28;20024;-77
2023/05/24 04:07:39;;;;;;;15.43;9.85;;;;;;;13.13;61.15;94814.69;5089407;28;20028;-78
2023/05/24 04:10:06;;;;;;;15.32;10.57;;;;;;;13.12;61.20;94816.69;5086557;28;20124;-78
2023/05/24 04:12:31;;;;;;;19.15;9.45;;;;;;;13.17;61.14;94824.38;5087084;28;20043;-78
2023/05/24 04:14:58;;;;;;;11.15;8.50;;;;;;;13.21;60.84;94818.75;5087339;28;20474;-78
2023/05/24 04:17:24;;;;;;;9.65;8.05;;;;;;;13.26;61.00;94815.41;5069422;28;20070;-77
2023/05/24 04:19:52;;;;;;;10.98;7.65;;;;;;;13.26;60.88;94821.69;5088883;28;20055;-79
2023/05/24 04:22:18;;;;;;;11.35;7.43;;;;;;;13.31;60.82;94823.06;5087112;28;20062;-77
2023/05/24 04:24:44;;;;;;;11.95;7.63;;;;;;;13.35;60.68;94829.19;5088841;28;20503;-78
2023/05/24 04:27:09;;;;;;;12.60;7.65;;;;;;;13.39;60.34;94818.78;5087125;28;20074;-78
2023/05/24 04:29:35;;;;;;;9.57;7.20;;;;;;;13.42;60.42;94823.41;5087862;28;20472;-78
2023/05/24 04:32:01;;;;;;;9.88;7.25;;;;;;;13.46;60.44;94828.75;5090223;28;20492;-78
2023/05/24 04:34:28;;;;;;;10.48;6.72;;;;;;;13.50;59.93;94827.38;5086208;28;20016;-77
2023/05/24 04:36:54;;;;;;;12.10;6.68;;;;;;;13.53;59.91;94829.25;5086885;28;20486;-77
2023/05/24 04:39:20;;;;;;;12.20;6.68;;;;;;;13.60;59.70;94832.94;5085880;28;20046;-78
2023/05/24 04:41:49;;;;;;;10.70;6.72;;;;;;;13.64;59.68;94833.53;5088339;28;20538;-77
2023/05/24 04:44:15;;;;;;;9.88;6.40;;;;;;;13.65;59.66;94837.81;5085342;28;20482;-78
2023/05/24 04:46:40;;;;;;;8.68;6.75;;;;;;;13.64;59.83;94842.59;5069829;28;20028;-78
2023/05/24 04:49:07;;;;;;;10.43;6.55;;;;;;;13.67;59.75;94838.91;5085655;28;20036;-78
2023/05/24 04:51:37;;;;;;;9.15;6.80;;;;;;;13.72;59.58;94843.06;5096976;28;20024;-79
2023/05/24 04:54:07;;;;;;;12.32;7.25;;;;;;;13.76;59.38;94847.22;5089119;28;20371;-77
2023/05/24 04:56:37;;;;;;;12.38;7.75;;;;;;;13.73;59.66;94830.78;5069274;28;20127;-78
2023/05/24 04:59:12;;;;;;;13.05;7.00;;;;;;;13.76;60.05;94840.91;5086719;28;20063;-79
2023/05/24 05:01:38;;;;;;;9.52;6.80;;;;;;;13.82;59.99;94839.09;5086644;28;20036;-77
2023/05/24 05:04:04;;;;;;;10.13;6.85;;;;;;;13.81;60.18;94841.06;5085717;28;20115;-77
2023/05/24 05:06:30;;;;;;;9.85;6.82;;;;;;;13.88;60.09;94851.06;5085911;28;20024;-76
2023/05/24 05:08:56;;;;;;;7.50;6.22;;;;;;;13.99;59.71;94847.81;5085577;28;20028;-78
2023/05/24 05:11:21;;;;;;;7.57;6.35;;;;;;;14.06;59.63;94855.81;5086049;28;20031;-78
2023/05/24 05:13:47;;;;;;;7.75;6.65;;;;;;;14.13;59.32;94861.03;5085070;28;20032;-77
2023/05/24 05:16:12;;;;;;;13.32;7.45;;;;;;;14.18;59.06;94863.19;5086117;28;20024;-78
2023/05/24 05:18:37;;;;;;;10.57;6.50;;;;;;;14.17;58.88;94860.88;5084593;28;20031;-78
2023/05/24 05:21:03;;;;;;;9.55;6.53;;;;;;;14.24;58.74;94858.56;5087459;28;20032;-78
2023/05/24 05:23:29;;;;;;;9.48;7.22;;;;;;;14.30;59.08;94855.94;5085293;28;20399;-77
2023/05/24 05:25:55;;;;;;;12.27;7.65;;;;;;;14.38;59.04;94859.16;5069727;28;20024;-78
2023/05/24 05:28:20;;;;;;;11.85;8.05;;;;;;;14.41;59.22;94859.00;5092985;28;20024;-79
2023/05/24 05:30:46;;;;;;;11.00;7.78;;;;;;;14.45;59.01;94856.06;5086429;28;20031;-77
2023/05/24 05:33:11;;;;;;;13.85;7.03;;;;;;;14.51;58.81;94848.72;5087075;28;20027;-78
2023/05/24 05:35:37;;;;;;;11.48;7.82;;;;;;;14.59;58.53;94859.00;5084872;28;20536;-78
2023/05/24 05:38:02;;;;;;;11.15;6.93;;;;;;;14.51;58.52;94848.72;5086131;28;20024;-78
2023/05/24 05:40:28;;;;;;;8.23;7.00;;;;;;;14.58;58.31;94849.16;5085281;28;20031;-78
2023/05/24 05:42:53;;;;;;;9.57;6.97;;;;;;;14.56;58.84;94854.38;5087009;28;20043;-78
2023/05/24 05:45:19;;;;;;;12.68;7.60;;;;;;;14.70;58.50;94866.81;5084492;28;20020;-78
2023/05/24 05:47:44;;;;;;;10.32;6.97;;;;;;;14.79;58.17;94868.75;5086512;28;20052;-79
2023/05/24 05:50:10;;;;;;;9.73;7.03;;;;;;;14.84;58.25;94866.13;5068440;28;20032;-78
2023/05/24 05:52:35;;;;;;;10.30;7.00;;;;;;;14.93;57.74;94859.81;5084331;28;20032;-77
2023/05/24 05:55:01;;;;;;;12.00;8.02;;;;;;;15.07;57.10;94861.91;5087412;28;20020;-78
2023/05/24 05:57:26;;;;;;;9.98;7.25;;;;;;;15.17;57.09;94867.41;5092225;28;20061;-76
2023/05/24 05:59:52;;;;;;;8.30;6.05;;;;;;;15.20;57.08;94869.25;5086566;28;20058;-78
2023/05/24 06:02:18;;;;;;;10.82;6.03;;;;;;;15.27;56.95;94871.66;5084433;28;20089;-78
2023/05/24 06:04:47;;;;;;;8.05;5.88;;;;;;;15.39;56.18;94873.44;5085648;28;20048;-77
2023/05/24 06:07:12;;;;;;;7.43;5.75;;;;;;;15.49;56.07;94869.41;5084993;28;20076;-78
2023/05/24 06:09:38;;;;;;;8.82;6.88;;;;;;;15.54;56.02;94870.72;5085568;28;20111;-78
2023/05/24 06:12:03;;;;;;;8.70;5.95;;;;;;;15.67;55.96;94876.84;5086668;28;20027;-78
2023/05/24 06:14:29;;;;;;;9.95;6.75;;;;;;;15.68;55.63;94867.31;5085821;28;20028;-78
2023/05/24 06:16:55;;;;;;;9.43;6.65;;;;;;;15.78;55.30;94882.63;5086942;28;20081;-78
2023/05/24 06:19:20;;;;;;;8.95;6.28;;;;;;;15.84;54.92;94883.53;5085173;28;20028;-78
2023/05/24 06:21:49;;;;;;;7.85;6.40;;;;;;;15.88;55.10;94869.47;5068271;28;20028;-77
2023/05/24 06:24:19;;;;;;;8.82;6.30;;;;;;;15.87;55.53;94870.72;5090918;28;20128;-78
2023/05/24 06:26:45;;;;;;;8.82;6.40;;;;;;;16.03;55.27;94866.75;5085738;28;20081;-78
2023/05/24 06:29:11;;;;;;;10.05;6.40;;;;;;;16.17;55.12;94871.56;5068150;28;20036;-79
2023/05/24 06:31:36;;;;;;;11.45;7.10;;;;;;;16.30;54.82;94874.84;5085396;28;20115;-78
2023/05/24 06:34:02;;;;;;;10.32;6.53;;;;;;;16.42;54.59;94859.94;5085169;28;20024;-79
2023/05/24 06:36:28;;;;;;;11.32;7.05;;;;;;;16.49;54.69;94867.13;5083737;28;20070;-77
2023/05/24 06:38:54;;;;;;;9.65;6.85;;;;;;;16.54;54.47;94862.91;5086852;28;20069;-78
2023/05/24 06:41:20;;;;;;;9.23;6.05;;;;;;;16.63;54.17;94865.56;5084141;28;20016;-78
2023/05/24 06:43:45;;;;;;;10.88;7.40;;;;;;;16.67;53.98;94866.16;5084870;28;20415;-78
2023/05/24 06:46:11;;;;;;;9.10;6.18;;;;;;;16.87;53.35;94871.84;5084778;28;20120;-79
2023/05/24 06:48:36;;;;;;;11.70;6.63;;;;;;;16.95;53.31;94872.22;5084095;28;20032;-78
2023/05/24 06:51:01;;;;;;;10.90;7.82;;;;;;;17.05;53.73;94864.56;5084859;28;20316;-78
2023/05/24 06:53:28;;;;;;;11.15;7.28;;;;;;;17.17;53.01;94864.25;5083793;28;20103;-78
2023/05/24 06:55:53;;;;;;;9.45;7.28;;;;;;;17.15;52.93;94861.19;5085151;28;20028;-78
2023/05/24 06:58:19;;;;;;;9.15;6.68;;;;;;;17.22;52.46;94868.34;5083867;28;20032;-79
2023/05/24 07:00:44;;;;;;;11.55;7.18;;;;;;;17.29;51.93;94867.19;5086238;28;20415;-78
2023/05/24 07:03:11;;;;;;;12.23;6.75;;;;;;;17.51;51.53;94870.28;5089869;28;20048;-79
2023/05/24 07:05:37;;;;;;;10.15;6.95;;;;;;;17.61;51.38;94860.59;5071551;28;20035;-78
2023/05/24 07:08:02;;;;;;;9.57;7.07;;;;;;;17.80;51.31;94871.47;5085115;28;20024;-80
2023/05/24 07:10:28;;;;;;;8.95;7.03;;;;;;;17.90;51.31;94867.31;5066612;28;20479;-79
2023/05/24 07:12:54;;;;;;;12.45;7.15;;;;;;;18.09;51.18;94870.56;5084377;28;20107;-79
2023/05/24 07:15:21;;;;;;;12.00;7.78;;;;;;;18.23;50.97;94867.69;5084814;28;20478;-79
2023/05/24 07:17:47;;;;;;;9.55;6.25;;;;;;;18.31;50.03;94866.03;5085096;28;20032;-78
2023/05/24 07:20:12;;;;;;;9.85;6.25;;;;;;;18.45;50.23;94869.19;5094081;28;20020;-78
2023/05/24 07:22:38;;;;;;;8.27;6.05;;;;;;;18.50;50.54;94869.25;5085003;28;20020;-77
2023/05/24 07:25:04;;;;;;;11.65;6.45;;;;;;;18.70;50.17;94874.03;5092687;28;20032;-78
2023/05/24 07:27:29;;;;;;;9.52;6.57;;;;;;;18.85;49.44;94871.13;5093170;28;20107;-78
2023/05/24 07:29:56;;;;;;;8.45;6.13;;;;;;;18.81;49.67;94874.16;5086367;28;20070;-78
2023/05/24 07:32:21;;;;;;;11.13;6.40;;;;;;;19.05;49.11;94873.09;5085054;28;20502;-79
2023/05/24 07:34:47;;;;;;;8.43;6.72;;;;;;;19.16;48.56;94870.38;5086140;28;20028;-79
2023/05/24 07:37:12;;;;;;;10.52;6.30;;;;;;;19.10;48.16;94870.34;5088211;28;20035;-78
2023/05/24 07:39:38;;;;;;;8.60;6.03;;;;;;;19.24;48.14;94873.47;5089327;28;20024;-79
2023/05/24 07:42:04;;;;;;;11.50;6.18;;;;;;;19.40;48.57;94870.06;5088556;28;20569;-78
2023/05/24 07:44:29;;;;;;;8.45;5.65;;;;;;;19.59;47.82;94867.66;5089110;28;20052;-79
2023/05/24 07:46:55;;;;;;;6.50;5.10;;;;;;;19.78;47.28;94871.56;5070860;28;20570;-80
2023/05/24 07:49:21;;;;;;;7.03;5.05;;;;;;;19.78;46.11;94874.34;5087271;28;20085;-78
2023/05/24 07:51:47;;;;;;;8.73;4.82;;;;;;;19.88;45.32;94867.31;5087823;28;20083;-79
2023/05/24 07:54:13;;;;;;;8.23;5.10;;;;;;;20.11;44.76;94868.16;5086527;28;20047;-78
2023/05/24 07:56:42;;;;;;;10.20;5.53;;;;;;;20.16;45.27;94869.47;5088109;28;20406;-78
2023/05/24 07:59:07;;;;;;;7.55;5.50;;;;;;;20.33;45.18;94859.13;5088063;28;20410;-79
2023/05/24 08:01:34;;;;;;;11.38;5.28;;;;;;;20.49;44.57;94860.47;5087684;28;20028;-78
2023/05/24 08:04:02;;;;;;;7.97;5.60;;;;;;;20.65;44.50;94861.78;5069678;28;20555;-79
2023/05/24 08:06:28;;;;;;;10.82;5.45;;;;;;;20.80;43.62;94862.28;5086771;28;20486;-78
2023/05/24 08:08:53;;;;;;;9.00;5.57;;;;;;;20.95;43.65;94859.28;5087726;28;20036;-79
2023/05/24 08:11:19;;;;;;;8.52;5.45;;;;;;;21.05;42.88;94854.19;5095421;28;20028;-79
2023/05/24 08:13:44;;;;;;;8.57;5.95;;;;;;;21.17;42.75;94850.88;5088173;28;20106;-80
2023/05/24 08:16:10;;;;;;;7.45;4.97;;;;;;;21.35;43.54;94863.63;5095393;28;20024;-79
2023/05/24 08:18:35;;;;;;;11.40;4.72;;;;;;;21.44;41.99;94857.75;5087473;28;20025;-79
2023/05/24 08:21:01;;;;;;;6.30;4.57;;;;;;;21.65;41.76;94854.66;5069071;28;20020;-80
2023/05/24 08:23:28;;;;;;;7.18;4.70;;;;;;;21.77;41.28;94847.00;5087766;28;20107;-79
2023/05/24 08:25:55;;;;;;;6.93;4.97;;;;;;;21.94;40.60;94854.06;5069762;28;20039;-79
2023/05/24 08:28:21;;;;;;;6.50;4.75;;;;;;;22.08;39.68;94851.47;5085888;28;20507;-79
2023/05/24 08:30:47;;;;;;;3.92;3.53;;;;;;;22.20;37.56;94850.19;5087114;28;20158;-78
2023/05/24 08:33:12;;;;;;;8.18;3.60;;;;;;;22.33;35.94;94860.81;5085515;28;20116;-79
2023/05/24 08:35:37;;;;;;;4.03;3.22;;;;;;;22.30;32.95;94851.41;5070539;28;20422;-78
2023/05/24 08:38:03;;;;;;;4.50;3.20;;;;;;;22.40;33.98;94852.63;5085644;28;20020;-79
2023/05/24 08:40:30;;;;;;;3.75;2.72;;;;;;;22.68;32.89;94848.91;5086923;28;20040;-79
2023/05/24 08:42:59;;;;;;;5.75;3.08;;;;;;;22.83;32.41;94846.53;5087833;28;20643;-79
2023/05/24 08:45:25;;;;;;;6.60;2.75;;;;;;;23.04;32.74;94858.88;5087849;28;20419;-79
2023/05/24 08:47:50;;;;;;;4.05;2.92;;;;;;;23.21;32.85;94852.38;5087718;28;20057;-79
2023/05/24 08:50:17;;;;;;;5.18;3.25;;;;;;;23.18;32.06;94836.63;5086130;28;20035;-79
2023/05/24 08:52:42;;;;;;;6.10;3.35;;;;;;;23.33;32.89;94851.00;5087762;28;20149;-79
2023/05/24 08:55:08;;;;;;;6.43;3.20;;;;;;;23.53;32.68;94850.56;5068957;28;20101;-79
2023/05/24 08:57:38;;;;;;;6.95;3.63;;;;;;;23.72;32.50;94852.72;5087443;28;20035;-78
2023/05/24 09:00:05;;;;;;;4.78;2.90;;;;;;;23.92;31.72;94843.84;5086347;28;20211;-79
2023/05/24 09:02:30;;;;;;;3.75;2.70;;;;;;;24.11;31.05;94846.66;5085954;28;20050;-79
2023/05/24 09:04:56;;;;;;;4.90;2.90;;;;;;;24.33;30.87;94840.03;5068811;28;20040;-79
2023/05/24 09:07:23;;;;;;;3.90;2.90;;;;;;;24.39;30.80;94843.53;5086012;28;20028;-79
2023/05/24 09:10:01;;;;;;;6.70;2.78;;;;;;;24.48;30.33;94836.78;5088534;28;20044;-79
2023/05/24 09:12:31;;;;;;;3.95;2.45;;;;;;;24.62;29.97;94836.31;5094299;28;20111;-79
2023/05/24 09:14:58;;;;;;;4.25;2.78;;;;;;;24.71;30.05;94842.84;5090218;28;20092;-79
2023/05/24 09:17:23;;;;;;;4.15;2.60;;;;;;;24.92;29.94;94845.88;5094124;28;20036;-78
2023/05/24 09:19:50;;;;;;;4.53;3.08;;;;;;;25.12;29.55;94840.47;5087894;28;20592;-78
2023/05/24 09:22:22;;;;;;;6.95;3.13;;;;;;;25.16;29.65;94838.09;5086573;28;20028;-78
2023/05/24 09:24:48;;;;;;;3.75;2.88;;;;;;;25.30;28.73;94835.34;5085620;28;20024;-79
2023/05/24 09:27:16;;;;;;;6.20;3.60;;;;;;;25.53;29.58;94830.84;5068803;28;20070;-78
2023/05/24 09:29:42;;;;;;;4.20;3.25;;;;;;;25.65;29.71;94831.41;5084654;28;20046;-79
2023/05/24 09:32:08;;;;;;;3.78;2.88;;;;;;;25.78;28.23;94830.66;5087208;28;20024;-80
2023/05/24 09:34:38;;;;;;;6.00;3.10;;;;;;;25.83;28.25;94830.56;5085347;28;20035;-80
2023/05/24 09:37:04;;;;;;;7.80;3.25;;;;;;;26.00;29.11;94824.63;5085055;28;20107;-79
2023/05/24 09:39:30;;;;;;;4.93;3.22;;;;;;;26.22;28.26;94826.22;5087189;28;20032;-80
2023/05/24 09:41:57;;;;;;;4.47;3.22;;;;;;;26.29;28.84;94836.84;5067937;28;20039;-79
2023/05/24 09:44:26;;;;;;;6.45;3.78;;;;;;;26.48;28.45;94829.00;5085411;28;20107;-79
2023/05/24 09:46:52;;;;;;;7.15;3.30;;;;;;;26.60;27.34;94832.34;5084785;28;20060;-80
2023/05/24 09:49:21;;;;;;;6.35;2.95;;;;;;;26.74;26.79;94824.63;5087062;28;20034;-78
2023/05/24 09:51:47;;;;;;;6.60;3.60;;;;;;;27.07;26.64;94823.13;5086054;28;20085;-78
2023/05/24 09:54:16;;;;;;;4.25;2.97;;;;;;;27.19;25.89;94829.25;5091186;28;20028;-78
2023/05/24 09:56:41;;;;;;;5.38;2.45;;;;;;;27.02;23.46;94831.69;5100237;28;20035;-79
2023/05/24 09:59:08;;;;;;;5.57;2.58;;;;;;;27.25;24.38;94836.28;5086274;28;20020;-79
2023/05/24 10:01:34;;;;;;;3.38;2.55;;;;;;;27.48;23.18;94818.78;5086324;28;20108;-79
2023/05/24 10:04:01;;;;;;;4.68;3.00;;;;;;;27.53;24.35;94821.47;5084846;28;20048;-79
2023/05/24 10:06:28;;;;;;;4.65;2.70;;;;;;;27.72;23.33;94823.31;5095265;28;20070;-80
2023/05/24 10:08:54;;;;;;;4.13;2.67;;;;;;;27.95;23.66;94820.66;5087124;28;20032;-79
2023/05/24 10:11:20;;;;;;;9.52;3.28;;;;;;;28.12;23.59;94814.53;5085307;28;20040;-79
2023/05/24 10:13:46;;;;;;;3.00;2.08;;;;;;;28.32;23.61;94810.88;5085186;28;20031;-79
2023/05/24 10:16:12;;;;;;;3.33;2.42;;;;;;;28.42;23.60;94808.28;5068274;28;20028;-80
2023/05/24 10:18:37;;;;;;;4.15;3.20;;;;;;;28.64;23.22;94804.06;5085445;28;20030;-79
2023/05/24 10:21:07;;;;;;;5.35;2.92;;;;;;;28.90;23.57;94800.16;5089616;28;20024;-80
2023/05/24 10:23:33;;;;;;;8.63;6.22;;;;;;;28.83;22.38;94808.06;5089549;28;20039;-79
2023/05/24 10:26:05;;;;;;;6.55;4.00;;;;;;;29.04;22.48;94802.28;5084473;28;20024;-79
2023/05/24 10:28:33;;;;;;;4.13;2.95;;;;;;;29.13;23.10;94803.78;5085388;28;20423;-79
2023/05/24 10:31:07;;;;;;;3.58;2.50;;;;;;;29.39;21.69;94807.59;5084803;28;20024;-79
2023/05/24 10:33:36;;;;;;;3.33;2.28;;;;;;;29.46;20.50;94810.44;5086321;28;20089;-79
2023/05/24 10:36:03;;;;;;;3.10;2.25;;;;;;;29.32;21.52;94804.22;5086475;28;20092;-80
2023/05/24 10:38:29;;;;;;;4.35;2.33;;;;;;;29.39;21.76;94790.63;5084117;28;20024;-80
2023/05/24 10:40:55;;;;;;;3.92;2.75;;;;;;;29.49;21.21;94792.31;5085403;28;20500;-80
2023/05/24 10:43:20;;;;;;;4.78;2.35;;;;;;;29.61;21.76;94796.31;5085241;28;20028;-78
2023/05/24 10:45:49;;;;;;;6.18;2.65;;;;;;;29.73;20.79;94788.19;5068306;28;20458;-79
2023/05/24 10:48:15;;;;;;;3.70;2.30;;;;;;;29.86;20.83;94787.97;5067371;28;20694;-79
2023/05/24 10:50:41;;;;;;;5.85;3.05;;;;;;;29.85;21.14;94786.47;5085959;28;20534;-79
2023/05/24 10:53:17;;;;;;;5.28;2.53;;;;;;;29.91;20.40;94780.59;5084879;28;20024;-79
2023/05/24 10:56:02;;;;;;;5.20;2.50;;;;;;;30.00;20.26;94785.69;5083814;28;20077;-80
2023/05/24 10:58:31;;;;;;;3.95;2.42;;;;;;;30.00;19.83;94773.59;5085349;28;20494;-80
2023/05/24 11:00:57;;;;;;;3.92;2.45;;;;;;;29.65;20.06;94767.63;5086238;28;20032;-80
2023/05/24 11:03:23;;;;;;;3.90;2.85;;;;;;;29.66;20.82;94771.97;5093542;28;20101;-79
2023/05/24 11:05:48;;;;;;;5.15;2.42;;;;;;;29.49;21.82;94769.69;5084141;28;20028;-79
2023/05/24 11:08:34;;;;;;;3.95;3.00;;;;;;;29.31;21.08;94773.66;5086694;28;20409;-79
2023/05/24 11:11:08;;;;;;;5.30;2.50;;;;;;;29.21;21.68;94764.97;5072388;28;20406;-79
2023/05/24 11:13:35;;;;;;;4.10;2.53;;;;;;;29.47;21.72;94769.47;5088587;28;20221;-79
2023/05/24 11:16:01;;;;;;;3.28;2.55;;;;;;;29.67;21.58;94767.78;5088838;28;20020;-79
2023/05/24 11:18:26;;;;;;;4.00;2.95;;;;;;;29.78;21.64;94761.00;5087066;28;20032;-80
2023/05/24 11:20:52;;;;;;;4.53;3.05;;;;;;;29.95;21.41;94760.38;5090310;28;20448;-79
2023/05/24 11:23:18;;;;;;;3.78;2.50;;;;;;;30.07;20.60;94759.41;5071493;28;20099;-80
2023/05/24 11:25:46;;;;;;;8.13;3.03;;;;;;;30.09;21.47;94753.16;5070848;28;20028;-79
2023/05/24 11:28:12;;;;;;;6.50;3.63;;;;;;;29.98;22.23;94765.66;5096995;28;20096;-79
2023/05/24 11:30:46;;;;;;;5.53;3.78;;;;;;;29.95;22.13;94751.88;5086768;28;20406;-79